sensor_id;sensor_type;location;lat;lon;timestamp;P1;durP1;ratioP1;P2;durP2;ratioP2
53931;SDS011;39844;52.496;13.482;2022-07-05T00:00:42;1.90;;;1.80;;
53931;SDS011;39844;52.496;13.482;2022-07-05T00:03:08;2.77;;;1.60;;
53931;SDS011;39844;52.496;13.482;2022-07-05T00:05:33;1.70;;;1.60;;
53931;SDS011;39844;52.496;13.482;2022-07-05T00:07:59;1.67;;;1.57;;
53931;SDS011;39844;52.496;13.482;2022-07-05T00:10:25;1.60;;;1.50;;
53931;SDS011;39844;52.496;13.482;2022-07-05T00:12:50;1.97;;;1.87;;
53931;SDS011;39844;52.496;13.482;2022-07-05T00:15:15;2.50;;;2.10;;
53931;SDS011;39844;52.496;13.482;2022-07-05T00:17:41;5.17;;;1.87;;
53931;SDS011;39844;52.496;13.482;2022-07-05T00:20:06;2.10;;;1.83;;
53931;SDS011;39844;52.496;13.482;2022-07-05T00:22:32;2.00;;;1.80;;
53931;SDS011;39844;52.496;13.482;2022-07-05T00:24:57;1.53;;;1.43;;
53931;SDS011;39844;52.496;13.482;2022-07-05T00:27:23;1.53;;;1.43;;
53931;SDS011;39844;52.496;13.482;2022-07-05T00:29:48;1.90;;;1.67;;
53931;SDS011;39844;52.496;13.482;2022-07-05T00:32:13;2.20;;;2.10;;
53931;SDS011;39844;52.496;13.482;2022-07-05T00:34:39;2.60;;;1.80;;
53931;SDS011;39844;52.496;13.482;2022-07-05T00:37:04;2.23;;;1.83;;
53931;SDS011;39844;52.496;13.482;2022-07-05T00:39:29;2.87;;;2.03;;
53931;SDS011;39844;52.496;13.482;2022-07-05T00:41:55;2.90;;;1.80;;
53931;SDS011;39844;52.496;13.482;2022-07-05T00:44:30;1.90;;;1.80;;
53931;SDS011;39844;52.496;13.482;2022-07-05T00:46:59;1.90;;;1.80;;
53931;SDS011;39844;52.496;13.482;2022-07-05T00:49:25;1.73;;;1.63;;
53931;SDS011;39844;52.496;13.482;2022-07-05T00:51:51;2.03;;;1.87;;
53931;SDS011;39844;52.496;13.482;2022-07-05T00:54:16;2.20;;;1.97;;
53931;SDS011;39844;52.496;13.482;2022-07-05T00:56:42;3.30;;;2.10;;
53931;SDS011;39844;52.496;13.482;2022-07-05T00:59:08;3.70;;;2.53;;
53931;SDS011;39844;52.496;13.482;2022-07-05T01:01:33;3.00;;;2.20;;
53931;SDS011;39844;52.496;13.482;2022-07-05T01:03:58;2.37;;;2.17;;
53931;SDS011;39844;52.496;13.482;2022-07-05T01:06:24;2.10;;;1.90;;
53931;SDS011;39844;52.496;13.482;2022-07-05T01:08:49;4.00;;;2.17;;
53931;SDS011;39844;52.496;13.482;2022-07-05T01:11:15;2.67;;;2.20;;
53931;SDS011;39844;52.496;13.482;2022-07-05T01:13:42;1.80;;;1.70;;
53931;SDS011;39844;52.496;13.482;2022-07-05T01:16:07;1.60;;;1.60;;
53931;SDS011;39844;52.496;13.482;2022-07-05T01:18:33;3.57;;;2.20;;
53931;SDS011;39844;52.496;13.482;2022-07-05T01:20:59;2.63;;;1.83;;
53931;SDS011;39844;52.496;13.482;2022-07-05T01:23:29;3.67;;;1.90;;
53931;SDS011;39844;52.496;13.482;2022-07-05T01:25:56;2.37;;;2.17;;
53931;SDS011;39844;52.496;13.482;2022-07-05T01:28:23;2.77;;;1.80;;
53931;SDS011;39844;52.496;13.482;2022-07-05T01:30:49;1.87;;;1.77;;
53931;SDS011;39844;52.496;13.482;2022-07-05T01:33:14;2.07;;;1.93;;
53931;SDS011;39844;52.496;13.482;2022-07-05T01:35:40;3.67;;;2.10;;
53931;SDS011;39844;52.496;13.482;2022-07-05T01:38:05;1.83;;;1.73;;
53931;SDS011;39844;52.496;13.482;2022-07-05T01:40:31;3.00;;;2.30;;
53931;SDS011;39844;52.496;13.482;2022-07-05T01:42:56;1.80;;;1.70;;
53931;SDS011;39844;52.496;13.482;2022-07-05T01:45:23;2.20;;;2.00;;
53931;SDS011;39844;52.496;13.482;2022-07-05T01:50:47;2.00;;;1.80;;
53931;SDS011;39844;52.496;13.482;2022-07-05T01:53:14;4.33;;;1.97;;
53931;SDS011;39844;52.496;13.482;2022-07-05T01:55:44;2.60;;;2.10;;
53931;SDS011;39844;52.496;13.482;2022-07-05T01:58:10;2.97;;;1.80;;
53931;SDS011;39844;52.496;13.482;2022-07-05T02:00:46;3.17;;;1.60;;
53931;SDS011;39844;52.496;13.482;2022-07-05T02:03:16;3.13;;;1.50;;
53931;SDS011;39844;52.496;13.482;2022-07-05T02:05:42;1.47;;;1.37;;
53931;SDS011;39844;52.496;13.482;2022-07-05T02:08:08;1.97;;;1.80;;
53931;SDS011;39844;52.496;13.482;2022-07-05T02:10:37;2.10;;;1.80;;
53931;SDS011;39844;52.496;13.482;2022-07-05T02:13:03;1.43;;;1.40;;
53931;SDS011;39844;52.496;13.482;2022-07-05T02:15:30;1.40;;;1.30;;
53931;SDS011;39844;52.496;13.482;2022-07-05T02:17:56;1.63;;;1.53;;
53931;SDS011;39844;52.496;13.482;2022-07-05T02:20:22;1.30;;;1.30;;
53931;SDS011;39844;52.496;13.482;2022-07-05T02:22:47;3.40;;;1.23;;
53931;SDS011;39844;52.496;13.482;2022-07-05T02:25:12;1.40;;;1.30;;
53931;SDS011;39844;52.496;13.482;2022-07-05T02:27:37;1.30;;;1.30;;
53931;SDS011;39844;52.496;13.482;2022-07-05T02:30:03;1.23;;;1.13;;
53931;SDS011;39844;52.496;13.482;2022-07-05T02:32:28;2.07;;;1.33;;
53931;SDS011;39844;52.496;13.482;2022-07-05T02:34:56;1.23;;;1.20;;
53931;SDS011;39844;52.496;13.482;2022-07-05T02:37:21;1.43;;;1.30;;
53931;SDS011;39844;52.496;13.482;2022-07-05T02:39:47;2.67;;;1.10;;
53931;SDS011;39844;52.496;13.482;2022-07-05T02:42:12;1.27;;;1.20;;
53931;SDS011;39844;52.496;13.482;2022-07-05T02:44:37;1.50;;;1.40;;
53931;SDS011;39844;52.496;13.482;2022-07-05T02:47:03;1.63;;;1.40;;
53931;SDS011;39844;52.496;13.482;2022-07-05T02:49:28;1.10;;;1.10;;
53931;SDS011;39844;52.496;13.482;2022-07-05T02:51:54;1.40;;;1.20;;
53931;SDS011;39844;52.496;13.482;2022-07-05T02:54:19;1.37;;;1.27;;
53931;SDS011;39844;52.496;13.482;2022-07-05T02:56:44;1.07;;;1.07;;
53931;SDS011;39844;52.496;13.482;2022-07-05T02:59:10;2.90;;;1.00;;
53931;SDS011;39844;52.496;13.482;2022-07-05T03:01:35;1.37;;;1.33;;
53931;SDS011;39844;52.496;13.482;2022-07-05T03:04:00;1.17;;;1.07;;
53931;SDS011;39844;52.496;13.482;2022-07-05T03:06:26;2.10;;;1.10;;
53931;SDS011;39844;52.496;13.482;2022-07-05T03:08:51;1.23;;;1.23;;
53931;SDS011;39844;52.496;13.482;2022-07-05T03:11:16;1.30;;;1.30;;
53931;SDS011;39844;52.496;13.482;2022-07-05T03:13:42;2.20;;;1.30;;
53931;SDS011;39844;52.496;13.482;2022-07-05T03:16:07;1.07;;;1.00;;
53931;SDS011;39844;52.496;13.482;2022-07-05T03:18:32;1.50;;;1.20;;
53931;SDS011;39844;52.496;13.482;2022-07-05T03:20:58;1.07;;;1.00;;
53931;SDS011;39844;52.496;13.482;2022-07-05T03:23:23;1.50;;;1.40;;
53931;SDS011;39844;52.496;13.482;2022-07-05T03:25:48;1.27;;;1.23;;
53931;SDS011;39844;52.496;13.482;2022-07-05T03:28:13;1.10;;;1.03;;
53931;SDS011;39844;52.496;13.482;2022-07-05T03:30:39;1.40;;;1.30;;
53931;SDS011;39844;52.496;13.482;2022-07-05T03:33:04;1.80;;;1.40;;
53931;SDS011;39844;52.496;13.482;2022-07-05T03:35:30;1.50;;;1.40;;
53931;SDS011;39844;52.496;13.482;2022-07-05T03:37:55;1.20;;;1.20;;
53931;SDS011;39844;52.496;13.482;2022-07-05T03:40:20;1.00;;;1.00;;
53931;SDS011;39844;52.496;13.482;2022-07-05T03:42:46;1.37;;;1.30;;
53931;SDS011;39844;52.496;13.482;2022-07-05T03:45:11;2.33;;;1.20;;
53931;SDS011;39844;52.496;13.482;2022-07-05T03:47:36;3.00;;;1.93;;
53931;SDS011;39844;52.496;13.482;2022-07-05T03:50:03;1.10;;;1.10;;
53931;SDS011;39844;52.496;13.482;2022-07-05T03:52:29;1.40;;;1.10;;
53931;SDS011;39844;52.496;13.482;2022-07-05T03:54:54;1.00;;;1.00;;
53931;SDS011;39844;52.496;13.482;2022-07-05T03:57:20;1.50;;;1.40;;
53931;SDS011;39844;52.496;13.482;2022-07-05T03:59:45;1.17;;;1.17;;
53931;SDS011;39844;52.496;13.482;2022-07-05T04:02:11;1.10;;;1.10;;
53931;SDS011;39844;52.496;13.482;2022-07-05T04:04:36;1.30;;;1.20;;
53931;SDS011;39844;52.496;13.482;2022-07-05T04:07:02;1.33;;;1.20;;
53931;SDS011;39844;52.496;13.482;2022-07-05T04:09:27;1.30;;;1.20;;
53931;SDS011;39844;52.496;13.482;2022-07-05T04:11:53;1.10;;;1.10;;
53931;SDS011;39844;52.496;13.482;2022-07-05T04:14:18;1.33;;;1.20;;
53931;SDS011;39844;52.496;13.482;2022-07-05T04:16:43;1.00;;;1.00;;
53931;SDS011;39844;52.496;13.482;2022-07-05T04:19:08;0.90;;;0.90;;
53931;SDS011;39844;52.496;13.482;2022-07-05T04:21:34;0.83;;;0.83;;
53931;SDS011;39844;52.496;13.482;2022-07-05T04:23:59;1.93;;;1.10;;
53931;SDS011;39844;52.496;13.482;2022-07-05T04:26:26;0.90;;;0.90;;
53931;SDS011;39844;52.496;13.482;2022-07-05T04:28:51;1.30;;;1.30;;
53931;SDS011;39844;52.496;13.482;2022-07-05T04:31:17;1.77;;;0.97;;
53931;SDS011;39844;52.496;13.482;2022-07-05T04:33:42;1.00;;;1.00;;
53931;SDS011;39844;52.496;13.482;2022-07-05T04:36:07;1.43;;;1.33;;
53931;SDS011;39844;52.496;13.482;2022-07-05T04:38:33;0.93;;;0.93;;
53931;SDS011;39844;52.496;13.482;2022-07-05T04:40:58;1.13;;;1.00;;
53931;SDS011;39844;52.496;13.482;2022-07-05T04:43:23;0.87;;;0.87;;
53931;SDS011;39844;52.496;13.482;2022-07-05T04:45:49;0.97;;;0.97;;
53931;SDS011;39844;52.496;13.482;2022-07-05T04:48:14;1.93;;;1.03;;
53931;SDS011;39844;52.496;13.482;2022-07-05T04:50:40;0.83;;;0.83;;
53931;SDS011;39844;52.496;13.482;2022-07-05T04:53:05;3.80;;;1.00;;
53931;SDS011;39844;52.496;13.482;2022-07-05T04:55:30;1.00;;;1.00;;
53931;SDS011;39844;52.496;13.482;2022-07-05T04:57:55;1.13;;;1.07;;
53931;SDS011;39844;52.496;13.482;2022-07-05T05:00:21;0.93;;;0.93;;
53931;SDS011;39844;52.496;13.482;2022-07-05T05:02:46;0.83;;;0.83;;
53931;SDS011;39844;52.496;13.482;2022-07-05T05:05:11;0.97;;;0.97;;
53931;SDS011;39844;52.496;13.482;2022-07-05T05:07:40;0.80;;;0.80;;
53931;SDS011;39844;52.496;13.482;2022-07-05T05:10:07;0.93;;;0.80;;
53931;SDS011;39844;52.496;13.482;2022-07-05T05:12:32;6.33;;;1.10;;
53931;SDS011;39844;52.496;13.482;2022-07-05T05:14:58;1.27;;;0.93;;
53931;SDS011;39844;52.496;13.482;2022-07-05T05:17:23;1.03;;;1.03;;
53931;SDS011;39844;52.496;13.482;2022-07-05T05:19:48;1.03;;;1.03;;
53931;SDS011;39844;52.496;13.482;2022-07-05T05:22:14;0.83;;;0.83;;
53931;SDS011;39844;52.496;13.482;2022-07-05T05:24:39;1.03;;;1.03;;
53931;SDS011;39844;52.496;13.482;2022-07-05T05:27:04;1.23;;;1.13;;
53931;SDS011;39844;52.496;13.482;2022-07-05T05:29:30;3.20;;;0.73;;
53931;SDS011;39844;52.496;13.482;2022-07-05T05:31:55;1.13;;;1.03;;
53931;SDS011;39844;52.496;13.482;2022-07-05T05:34:20;0.90;;;0.90;;
53931;SDS011;39844;52.496;13.482;2022-07-05T05:36:46;0.80;;;0.80;;
53931;SDS011;39844;52.496;13.482;2022-07-05T05:39:12;0.80;;;0.80;;
53931;SDS011;39844;52.496;13.482;2022-07-05T05:41:38;0.73;;;0.73;;
53931;SDS011;39844;52.496;13.482;2022-07-05T05:44:03;0.67;;;0.67;;
53931;SDS011;39844;52.496;13.482;2022-07-05T05:46:29;1.10;;;1.03;;
53931;SDS011;39844;52.496;13.482;2022-07-05T05:48:54;2.03;;;0.90;;
53931;SDS011;39844;52.496;13.482;2022-07-05T05:51:19;1.00;;;0.97;;
53931;SDS011;39844;52.496;13.482;2022-07-05T05:53:45;1.07;;;0.87;;
53931;SDS011;39844;52.496;13.482;2022-07-05T05:56:11;0.75;;;0.75;;
53931;SDS011;39844;52.496;13.482;2022-07-05T05:58:37;0.70;;;0.70;;
53931;SDS011;39844;52.496;13.482;2022-07-05T06:01:02;1.60;;;1.00;;
53931;SDS011;39844;52.496;13.482;2022-07-05T06:03:27;0.80;;;0.80;;
53931;SDS011;39844;52.496;13.482;2022-07-05T06:05:53;1.43;;;1.20;;
53931;SDS011;39844;52.496;13.482;2022-07-05T06:08:19;1.13;;;0.80;;
53931;SDS011;39844;52.496;13.482;2022-07-05T06:10:45;1.00;;;1.00;;
53931;SDS011;39844;52.496;13.482;2022-07-05T06:13:11;0.60;;;0.60;;
53931;SDS011;39844;52.496;13.482;2022-07-05T06:15:38;2.50;;;1.00;;
53931;SDS011;39844;52.496;13.482;2022-07-05T06:18:06;1.50;;;1.00;;
53931;SDS011;39844;52.496;13.482;2022-07-05T06:20:33;0.87;;;0.87;;
53931;SDS011;39844;52.496;13.482;2022-07-05T06:23:00;1.40;;;1.00;;
53931;SDS011;39844;52.496;13.482;2022-07-05T06:25:26;0.80;;;0.80;;
53931;SDS011;39844;52.496;13.482;2022-07-05T06:27:56;0.90;;;0.90;;
53931;SDS011;39844;52.496;13.482;2022-07-05T06:30:23;1.10;;;1.10;;
53931;SDS011;39844;52.496;13.482;2022-07-05T06:32:50;0.98;;;0.98;;
53931;SDS011;39844;52.496;13.482;2022-07-05T06:35:16;2.43;;;1.10;;
53931;SDS011;39844;52.496;13.482;2022-07-05T06:37:46;1.00;;;1.00;;
53931;SDS011;39844;52.496;13.482;2022-07-05T06:40:14;0.73;;;0.73;;
53931;SDS011;39844;52.496;13.482;2022-07-05T06:42:43;0.90;;;0.90;;
53931;SDS011;39844;52.496;13.482;2022-07-05T06:45:09;1.20;;;0.90;;
53931;SDS011;39844;52.496;13.482;2022-07-05T06:47:35;0.88;;;0.88;;
53931;SDS011;39844;52.496;13.482;2022-07-05T06:50:01;4.68;;;0.90;;
53931;SDS011;39844;52.496;13.482;2022-07-05T06:52:30;0.80;;;0.80;;
53931;SDS011;39844;52.496;13.482;2022-07-05T06:54:57;1.20;;;1.10;;
53931;SDS011;39844;52.496;13.482;2022-07-05T06:57:22;2.45;;;0.90;;
53931;SDS011;39844;52.496;13.482;2022-07-05T06:59:48;1.50;;;0.98;;
53931;SDS011;39844;52.496;13.482;2022-07-05T07:02:15;0.88;;;0.88;;
53931;SDS011;39844;52.496;13.482;2022-07-05T07:04:40;0.63;;;0.63;;
53931;SDS011;39844;52.496;13.482;2022-07-05T07:07:06;0.80;;;0.80;;
53931;SDS011;39844;52.496;13.482;2022-07-05T07:09:49;1.00;;;0.90;;
53931;SDS011;39844;52.496;13.482;2022-07-05T07:12:15;1.15;;;0.90;;
53931;SDS011;39844;52.496;13.482;2022-07-05T07:14:40;2.13;;;0.88;;
53931;SDS011;39844;52.496;13.482;2022-07-05T07:17:05;3.33;;;0.80;;
53931;SDS011;39844;52.496;13.482;2022-07-05T07:19:31;1.08;;;1.08;;
53931;SDS011;39844;52.496;13.482;2022-07-05T07:21:56;1.48;;;1.00;;
53931;SDS011;39844;52.496;13.482;2022-07-05T07:24:21;1.30;;;1.10;;
53931;SDS011;39844;52.496;13.482;2022-07-05T07:26:47;1.00;;;1.00;;
53931;SDS011;39844;52.496;13.482;2022-07-05T07:29:29;1.38;;;1.30;;
53931;SDS011;39844;52.496;13.482;2022-07-05T07:31:55;1.10;;;0.90;;
53931;SDS011;39844;52.496;13.482;2022-07-05T07:34:22;0.90;;;0.90;;
53931;SDS011;39844;52.496;13.482;2022-07-05T07:36:48;1.73;;;1.33;;
53931;SDS011;39844;52.496;13.482;2022-07-05T07:39:14;1.52;;;1.10;;
53931;SDS011;39844;52.496;13.482;2022-07-05T07:41:39;1.30;;;1.20;;
53931;SDS011;39844;52.496;13.482;2022-07-05T07:44:05;1.02;;;0.90;;
53931;SDS011;39844;52.496;13.482;2022-07-05T07:46:30;2.78;;;0.88;;
53931;SDS011;39844;52.496;13.482;2022-07-05T07:48:56;1.15;;;1.15;;
53931;SDS011;39844;52.496;13.482;2022-07-05T07:51:21;1.20;;;1.10;;
53931;SDS011;39844;52.496;13.482;2022-07-05T07:53:47;1.35;;;1.20;;
53931;SDS011;39844;52.496;13.482;2022-07-05T07:56:12;1.45;;;1.23;;
53931;SDS011;39844;52.496;13.482;2022-07-05T07:58:38;1.70;;;1.20;;
53931;SDS011;39844;52.496;13.482;2022-07-05T08:01:03;1.20;;;1.08;;
53931;SDS011;39844;52.496;13.482;2022-07-05T08:03:31;1.00;;;1.00;;
53931;SDS011;39844;52.496;13.482;2022-07-05T08:05:57;3.13;;;1.10;;
53931;SDS011;39844;52.496;13.482;2022-07-05T08:08:22;1.10;;;1.00;;
53931;SDS011;39844;52.496;13.482;2022-07-05T08:10:47;2.60;;;0.90;;
53931;SDS011;39844;52.496;13.482;2022-07-05T08:13:12;1.75;;;1.10;;
53931;SDS011;39844;52.496;13.482;2022-07-05T08:15:38;3.33;;;1.15;;
53931;SDS011;39844;52.496;13.482;2022-07-05T08:18:03;0.98;;;0.98;;
53931;SDS011;39844;52.496;13.482;2022-07-05T08:20:47;1.20;;;1.20;;
53931;SDS011;39844;52.496;13.482;2022-07-05T08:23:31;0.77;;;0.77;;
53931;SDS011;39844;52.496;13.482;2022-07-05T08:25:56;4.13;;;1.10;;
53931;SDS011;39844;52.496;13.482;2022-07-05T08:28:22;0.85;;;0.85;;
53931;SDS011;39844;52.496;13.482;2022-07-05T08:30:49;0.80;;;0.80;;
53931;SDS011;39844;52.496;13.482;2022-07-05T08:33:14;2.45;;;1.00;;
53931;SDS011;39844;52.496;13.482;2022-07-05T08:35:39;0.82;;;0.82;;
53931;SDS011;39844;52.496;13.482;2022-07-05T08:38:04;0.90;;;0.90;;
53931;SDS011;39844;52.496;13.482;2022-07-05T08:40:30;1.95;;;1.02;;
53931;SDS011;39844;52.496;13.482;2022-07-05T08:43:02;2.55;;;2.35;;
53931;SDS011;39844;52.496;13.482;2022-07-05T08:45:28;1.23;;;1.10;;
53931;SDS011;39844;52.496;13.482;2022-07-05T08:47:55;0.80;;;0.80;;
53931;SDS011;39844;52.496;13.482;2022-07-05T08:50:24;1.75;;;1.00;;
53931;SDS011;39844;52.496;13.482;2022-07-05T08:52:50;1.30;;;1.20;;
53931;SDS011;39844;52.496;13.482;2022-07-05T08:55:17;1.75;;;1.27;;
53931;SDS011;39844;52.496;13.482;2022-07-05T08:57:43;1.00;;;1.00;;
53931;SDS011;39844;52.496;13.482;2022-07-05T09:00:08;1.15;;;1.13;;
53931;SDS011;39844;52.496;13.482;2022-07-05T09:02:34;0.90;;;0.90;;
53931;SDS011;39844;52.496;13.482;2022-07-05T09:04:59;0.98;;;0.98;;
53931;SDS011;39844;52.496;13.482;2022-07-05T09:07:27;2.30;;;1.17;;
53931;SDS011;39844;52.496;13.482;2022-07-05T09:09:57;1.30;;;1.20;;
53931;SDS011;39844;52.496;13.482;2022-07-05T09:12:26;1.00;;;1.00;;
53931;SDS011;39844;52.496;13.482;2022-07-05T09:14:52;1.40;;;1.25;;
53931;SDS011;39844;52.496;13.482;2022-07-05T09:17:18;1.13;;;1.02;;
53931;SDS011;39844;52.496;13.482;2022-07-05T09:19:46;2.75;;;1.20;;
53931;SDS011;39844;52.496;13.482;2022-07-05T09:22:39;2.58;;;1.00;;
53931;SDS011;39844;52.496;13.482;2022-07-05T09:28:03;2.20;;;1.17;;
53931;SDS011;39844;52.496;13.482;2022-07-05T09:32:59;1.38;;;1.27;;
53931;SDS011;39844;52.496;13.482;2022-07-05T09:35:51;1.00;;;1.00;;
53931;SDS011;39844;52.496;13.482;2022-07-05T09:38:23;1.00;;;1.00;;
53931;SDS011;39844;52.496;13.482;2022-07-05T09:40:53;2.20;;;1.10;;
53931;SDS011;39844;52.496;13.482;2022-07-05T09:43:29;3.38;;;1.23;;
53931;SDS011;39844;52.496;13.482;2022-07-05T09:45:58;1.65;;;1.55;;
53931;SDS011;39844;52.496;13.482;2022-07-05T09:48:24;1.33;;;1.20;;
53931;SDS011;39844;52.496;13.482;2022-07-05T09:50:51;2.92;;;1.20;;
53931;SDS011;39844;52.496;13.482;2022-07-05T09:53:17;1.20;;;1.20;;
53931;SDS011;39844;52.496;13.482;2022-07-05T09:56:00;1.73;;;1.05;;
53931;SDS011;39844;52.496;13.482;2022-07-05T09:58:28;1.42;;;1.33;;
53931;SDS011;39844;52.496;13.482;2022-07-05T10:00:54;1.30;;;1.20;;
53931;SDS011;39844;52.496;13.482;2022-07-05T10:03:19;1.33;;;1.20;;
53931;SDS011;39844;52.496;13.482;2022-07-05T10:05:45;1.00;;;1.00;;
53931;SDS011;39844;52.496;13.482;2022-07-05T10:08:10;4.35;;;1.17;;
53931;SDS011;39844;52.496;13.482;2022-07-05T10:10:38;1.35;;;1.25;;
53931;SDS011;39844;52.496;13.482;2022-07-05T10:13:04;2.65;;;1.35;;
53931;SDS011;39844;52.496;13.482;2022-07-05T10:15:32;1.60;;;1.30;;
53931;SDS011;39844;52.496;13.482;2022-07-05T10:17:59;1.17;;;1.08;;
53931;SDS011;39844;52.496;13.482;2022-07-05T10:23:05;2.58;;;1.20;;
53931;SDS011;39844;52.496;13.482;2022-07-05T10:25:33;3.10;;;1.30;;
53931;SDS011;39844;52.496;13.482;2022-07-05T10:28:00;1.20;;;1.20;;
53931;SDS011;39844;52.496;13.482;2022-07-05T10:30:25;1.35;;;1.25;;
53931;SDS011;39844;52.496;13.482;2022-07-05T10:32:51;2.47;;;1.10;;
53931;SDS011;39844;52.496;13.482;2022-07-05T10:35:17;1.20;;;1.20;;
53931;SDS011;39844;52.496;13.482;2022-07-05T10:37:43;1.33;;;1.23;;
53931;SDS011;39844;52.496;13.482;2022-07-05T10:40:10;1.48;;;1.25;;
53931;SDS011;39844;52.496;13.482;2022-07-05T10:42:42;1.42;;;1.05;;
53931;SDS011;39844;52.496;13.482;2022-07-05T10:45:26;2.65;;;1.27;;
53931;SDS011;39844;52.496;13.482;2022-07-05T10:58:41;2.13;;;1.13;;
53931;SDS011;39844;52.496;13.482;2022-07-05T11:06:26;1.17;;;1.02;;
53931;SDS011;39844;52.496;13.482;2022-07-05T11:11:31;1.13;;;1.13;;
53931;SDS011;39844;52.496;13.482;2022-07-05T11:14:05;1.10;;;1.00;;
53931;SDS011;39844;52.496;13.482;2022-07-05T11:19:35;1.25;;;1.10;;
53931;SDS011;39844;52.496;13.482;2022-07-05T11:22:28;1.00;;;1.00;;
53931;SDS011;39844;52.496;13.482;2022-07-05T11:24:55;1.35;;;1.25;;
53931;SDS011;39844;52.496;13.482;2022-07-05T11:27:21;1.33;;;1.23;;
53931;SDS011;39844;52.496;13.482;2022-07-05T11:29:47;1.15;;;1.10;;
53931;SDS011;39844;52.496;13.482;2022-07-05T11:34:54;2.75;;;1.38;;
53931;SDS011;39844;52.496;13.482;2022-07-05T11:37:23;2.47;;;1.23;;
53931;SDS011;39844;52.496;13.482;2022-07-05T11:42:29;1.25;;;1.05;;
53931;SDS011;39844;52.496;13.482;2022-07-05T11:44:54;0.93;;;0.93;;
53931;SDS011;39844;52.496;13.482;2022-07-05T11:47:20;1.58;;;1.20;;
53931;SDS011;39844;52.496;13.482;2022-07-05T11:49:57;1.13;;;1.05;;
53931;SDS011;39844;52.496;13.482;2022-07-05T11:52:27;3.10;;;1.30;;
53931;SDS011;39844;52.496;13.482;2022-07-05T11:54:53;1.63;;;1.38;;
53931;SDS011;39844;52.496;13.482;2022-07-05T11:57:19;1.40;;;1.20;;
53931;SDS011;39844;52.496;13.482;2022-07-05T11:59:45;0.98;;;0.98;;
53931;SDS011;39844;52.496;13.482;2022-07-05T12:02:11;1.00;;;1.00;;
53931;SDS011;39844;52.496;13.482;2022-07-05T12:04:37;1.17;;;1.10;;
53931;SDS011;39844;52.496;13.482;2022-07-05T12:07:02;8.48;;;1.58;;
53931;SDS011;39844;52.496;13.482;2022-07-05T12:09:29;7.28;;;1.30;;
53931;SDS011;39844;52.496;13.482;2022-07-05T12:12:23;1.55;;;1.20;;
53931;SDS011;39844;52.496;13.482;2022-07-05T12:15:14;1.95;;;1.23;;
53931;SDS011;39844;52.496;13.482;2022-07-05T12:17:42;1.52;;;1.20;;
53931;SDS011;39844;52.496;13.482;2022-07-05T12:20:10;1.48;;;1.20;;
53931;SDS011;39844;52.496;13.482;2022-07-05T12:22:37;0.98;;;0.98;;
53931;SDS011;39844;52.496;13.482;2022-07-05T12:25:05;0.90;;;0.90;;
53931;SDS011;39844;52.496;13.482;2022-07-05T12:27:35;1.00;;;0.93;;
53931;SDS011;39844;52.496;13.482;2022-07-05T12:30:02;1.08;;;1.00;;
53931;SDS011;39844;52.496;13.482;2022-07-05T12:32:29;1.02;;;1.00;;
53931;SDS011;39844;52.496;13.482;2022-07-05T12:34:56;1.15;;;1.02;;
53931;SDS011;39844;52.496;13.482;2022-07-05T12:37:22;1.85;;;1.05;;
53931;SDS011;39844;52.496;13.482;2022-07-05T12:39:49;1.42;;;1.08;;
53931;SDS011;39844;52.496;13.482;2022-07-05T12:42:31;0.90;;;0.90;;
53931;SDS011;39844;52.496;13.482;2022-07-05T12:45:10;1.10;;;1.00;;
53931;SDS011;39844;52.496;13.482;2022-07-05T12:47:48;1.05;;;0.95;;
53931;SDS011;39844;52.496;13.482;2022-07-05T12:50:15;1.05;;;1.05;;
53931;SDS011;39844;52.496;13.482;2022-07-05T12:52:53;1.17;;;1.17;;
53931;SDS011;39844;52.496;13.482;2022-07-05T12:55:21;3.40;;;1.20;;
53931;SDS011;39844;52.496;13.482;2022-07-05T12:58:05;0.95;;;0.95;;
53931;SDS011;39844;52.496;13.482;2022-07-05T13:00:30;1.10;;;0.98;;
53931;SDS011;39844;52.496;13.482;2022-07-05T13:02:56;1.00;;;1.00;;
53931;SDS011;39844;52.496;13.482;2022-07-05T13:05:22;1.08;;;0.90;;
53931;SDS011;39844;52.496;13.482;2022-07-05T13:07:49;3.50;;;1.02;;
53931;SDS011;39844;52.496;13.482;2022-07-05T13:10:18;0.98;;;0.98;;
53931;SDS011;39844;52.496;13.482;2022-07-05T13:12:45;1.38;;;1.10;;
53931;SDS011;39844;52.496;13.482;2022-07-05T13:15:11;1.00;;;1.00;;
53931;SDS011;39844;52.496;13.482;2022-07-05T13:17:37;1.13;;;1.10;;
53931;SDS011;39844;52.496;13.482;2022-07-05T13:20:02;1.25;;;1.15;;
53931;SDS011;39844;52.496;13.482;2022-07-05T13:22:31;1.13;;;0.98;;
53931;SDS011;39844;52.496;13.482;2022-07-05T13:24:57;1.00;;;1.00;;
53931;SDS011;39844;52.496;13.482;2022-07-05T13:27:22;2.03;;;0.88;;
53931;SDS011;39844;52.496;13.482;2022-07-05T13:29:47;1.15;;;1.00;;
53931;SDS011;39844;52.496;13.482;2022-07-05T13:32:15;3.50;;;1.25;;
53931;SDS011;39844;52.496;13.482;2022-07-05T13:34:42;1.60;;;0.95;;
53931;SDS011;39844;52.496;13.482;2022-07-05T13:37:08;1.65;;;1.20;;
53931;SDS011;39844;52.496;13.482;2022-07-05T13:39:33;1.10;;;1.10;;
53931;SDS011;39844;52.496;13.482;2022-07-05T13:41:59;1.73;;;1.20;;
53931;SDS011;39844;52.496;13.482;2022-07-05T13:44:24;1.23;;;1.05;;
53931;SDS011;39844;52.496;13.482;2022-07-05T13:46:50;0.95;;;0.95;;
53931;SDS011;39844;52.496;13.482;2022-07-05T13:49:16;1.30;;;0.90;;
53931;SDS011;39844;52.496;13.482;2022-07-05T13:51:41;1.30;;;1.05;;
53931;SDS011;39844;52.496;13.482;2022-07-05T13:54:06;0.90;;;0.90;;
53931;SDS011;39844;52.496;13.482;2022-07-05T13:56:32;3.38;;;1.33;;
53931;SDS011;39844;52.496;13.482;2022-07-05T13:58:58;1.35;;;1.25;;
53931;SDS011;39844;52.496;13.482;2022-07-05T14:01:24;2.35;;;1.30;;
53931;SDS011;39844;52.496;13.482;2022-07-05T14:03:55;1.98;;;1.08;;
53931;SDS011;39844;52.496;13.482;2022-07-05T14:06:25;1.92;;;1.30;;
53931;SDS011;39844;52.496;13.482;2022-07-05T14:08:51;5.88;;;1.45;;
53931;SDS011;39844;52.496;13.482;2022-07-05T14:11:16;1.20;;;1.20;;
53931;SDS011;39844;52.496;13.482;2022-07-05T14:13:42;0.98;;;0.98;;
53931;SDS011;39844;52.496;13.482;2022-07-05T14:16:07;1.48;;;1.10;;
53931;SDS011;39844;52.496;13.482;2022-07-05T14:18:33;1.10;;;1.10;;
53931;SDS011;39844;52.496;13.482;2022-07-05T14:20:59;1.40;;;1.30;;
53931;SDS011;39844;52.496;13.482;2022-07-05T14:23:25;0.88;;;0.80;;
53931;SDS011;39844;52.496;13.482;2022-07-05T14:25:50;0.90;;;0.90;;
53931;SDS011;39844;52.496;13.482;2022-07-05T14:28:16;1.00;;;1.00;;
53931;SDS011;39844;52.496;13.482;2022-07-05T14:30:42;2.50;;;1.10;;
53931;SDS011;39844;52.496;13.482;2022-07-05T14:33:10;5.50;;;1.02;;
53931;SDS011;39844;52.496;13.482;2022-07-05T14:35:36;1.00;;;1.00;;
53931;SDS011;39844;52.496;13.482;2022-07-05T14:38:03;1.55;;;1.10;;
53931;SDS011;39844;52.496;13.482;2022-07-05T14:40:28;4.57;;;1.30;;
53931;SDS011;39844;52.496;13.482;2022-07-05T14:42:55;0.90;;;0.90;;
53931;SDS011;39844;52.496;13.482;2022-07-05T14:45:23;1.20;;;1.10;;
53931;SDS011;39844;52.496;13.482;2022-07-05T14:47:48;1.00;;;1.00;;
53931;SDS011;39844;52.496;13.482;2022-07-05T14:50:14;1.30;;;1.00;;
53931;SDS011;39844;52.496;13.482;2022-07-05T14:52:40;1.00;;;1.00;;
53931;SDS011;39844;52.496;13.482;2022-07-05T14:55:10;0.90;;;0.90;;
53931;SDS011;39844;52.496;13.482;2022-07-05T14:57:36;1.40;;;0.90;;
53931;SDS011;39844;52.496;13.482;2022-07-05T15:00:03;1.33;;;1.20;;
53931;SDS011;39844;52.496;13.482;2022-07-05T15:02:29;0.98;;;0.88;;
53931;SDS011;39844;52.496;13.482;2022-07-05T15:04:54;2.45;;;1.13;;
53931;SDS011;39844;52.496;13.482;2022-07-05T15:07:20;2.40;;;0.95;;
53931;SDS011;39844;52.496;13.482;2022-07-05T15:09:45;3.03;;;1.10;;